OIII

Mehrabad International Airport

Tehran, Iran
TAF OIII 162300Z 1700/1806 30004MPS 8000 FEW030CB SCT040 BKN100 TEMPO 1700/1709 26009MPS 5000 TS/SHRA SCT035CB SCT040 BKN090 BECMG 1712/1714 FEW040 SCT090
Issued Valid From Valid To
Oct-16 @ 23:00 UTC
(7 hours ago)
Oct-17 @ 00:00 UTC
(6 hours ago)
Oct-18 @ 06:00 UTC
(in 24 hours)
Oct-17 @ 00:00 to Oct-17 @ 12:00
TAF OIII 162300Z 1700/1806 30004MPS 8000 FEW030CB SCT040 BKN100
Wind Visibility Clouds
300° at 8 knots 7,998 meters
  • Few at 3,000' AGL
  • Scattered at 4,000' AGL
  • Broken at 10,000' AGL
Temporary Oct-17 @ 00:00 to Oct-17 @ 09:00
TEMPO 1700/1709 26009MPS 5000 TS/SHRA SCT035CB SCT040 BKN090
Wind Visibility Clouds Conditions
260° at 17 knots 5,005 meters
  • Scattered at 3,500' AGL
  • Scattered at 4,000' AGL
  • Broken at 9,000' AGL
  • Rain
  • Thunderstorm
Becoming Oct-17 @ 12:00 to Oct-18 @ 06:00
BECMG 1712/1714 FEW040 SCT090
Wind Visibility Clouds
300° at 8 knots 7,998 meters
  • Few at 4,000' AGL
  • Scattered at 9,000' AGL
TAF OIII 162300Z 1700/1806 30004MPS 8000 FEW030CB SCT040 BKN100 TEMPO 1700/1709 26009MPS 5000 TS/SHRA SCT035CB SCT040 BKN090 BECMG 1712/1714 FEW040 SCT090
Issued Oct-16 @ 23:00 UTC
(7 hours ago)
Valid From Oct-17 @ 00:00 UTC
(6 hours ago)
Valid To Oct-18 @ 06:00 UTC
(in 24 hours)
Oct-17 @ 00:00 - Oct-17 @ 12:00
Wind Visibility
300° at 8 knots 7,998 meters
Clouds
  • Few at 3,000' AGL
  • Scattered at 4,000' AGL
  • Broken at 10,000' AGL
Temporary Oct-17 @ 00:00 - Oct-17 @ 09:00
Wind Visibility
260° at 17 knots 5,005 meters
Clouds
  • Scattered at 3,500' AGL
  • Scattered at 4,000' AGL
  • Broken at 9,000' AGL
Conditions
  • Rain
  • Thunderstorm
Becoming Oct-17 @ 12:00 - Oct-18 @ 06:00
Wind Visibility
300° at 8 knots 7,998 meters
Clouds
  • Few at 4,000' AGL
  • Scattered at 9,000' AGL